sensor_id;sensor_type;location;lat;lon;timestamp;temperature;humidity
38239;DHT22;24035;48.900;9.188;2023-08-21T00:01:42;23.90;99.90
38239;DHT22;24035;48.900;9.188;2023-08-21T00:04:08;23.90;99.90
38239;DHT22;24035;48.900;9.188;2023-08-21T00:06:34;23.80;1.00
38239;DHT22;24035;48.900;9.188;2023-08-21T00:09:01;23.90;1.00
38239;DHT22;24035;48.900;9.188;2023-08-21T00:11:27;23.80;1.00
38239;DHT22;24035;48.900;9.188;2023-08-21T00:13:53;23.80;1.00
38239;DHT22;24035;48.900;9.188;2023-08-21T00:16:18;23.70;1.00
38239;DHT22;24035;48.900;9.188;2023-08-21T00:18:44;23.70;1.00
38239;DHT22;24035;48.900;9.188;2023-08-21T00:21:10;23.70;1.00
38239;DHT22;24035;48.900;9.188;2023-08-21T00:23:35;23.70;1.00
38239;DHT22;24035;48.900;9.188;2023-08-21T00:26:01;23.70;1.00
38239;DHT22;24035;48.900;9.188;2023-08-21T00:28:27;23.70;1.00
38239;DHT22;24035;48.900;9.188;2023-08-21T00:31:05;23.70;1.00
38239;DHT22;24035;48.900;9.188;2023-08-21T00:33:32;23.70;1.00
38239;DHT22;24035;48.900;9.188;2023-08-21T00:35:58;23.70;1.00
38239;DHT22;24035;48.900;9.188;2023-08-21T00:38:23;23.70;1.00
38239;DHT22;24035;48.900;9.188;2023-08-21T00:40:49;23.70;1.00
38239;DHT22;24035;48.900;9.188;2023-08-21T00:43:15;23.60;1.00
38239;DHT22;24035;48.900;9.188;2023-08-21T00:45:43;23.60;1.00
38239;DHT22;24035;48.900;9.188;2023-08-21T00:48:10;23.60;1.00
38239;DHT22;24035;48.900;9.188;2023-08-21T00:50:36;23.50;1.00
38239;DHT22;24035;48.900;9.188;2023-08-21T00:53:02;23.50;1.00
38239;DHT22;24035;48.900;9.188;2023-08-21T00:55:29;23.40;1.00
38239;DHT22;24035;48.900;9.188;2023-08-21T00:57:55;23.30;1.00
38239;DHT22;24035;48.900;9.188;2023-08-21T01:00:21;23.30;67.30
38239;DHT22;24035;48.900;9.188;2023-08-21T01:02:48;23.20;99.90
38239;DHT22;24035;48.900;9.188;2023-08-21T01:05:14;23.10;99.90
38239;DHT22;24035;48.900;9.188;2023-08-21T01:07:56;23.10;99.90
38239;DHT22;24035;48.900;9.188;2023-08-21T01:10:32;23.10;99.90
38239;DHT22;24035;48.900;9.188;2023-08-21T01:13:23;23.00;99.90
38239;DHT22;24035;48.900;9.188;2023-08-21T01:15:54;23.00;1.00
38239;DHT22;24035;48.900;9.188;2023-08-21T01:18:20;22.90;1.00
38239;DHT22;24035;48.900;9.188;2023-08-21T01:20:47;22.90;1.00
38239;DHT22;24035;48.900;9.188;2023-08-21T01:23:35;22.80;1.00
38239;DHT22;24035;48.900;9.188;2023-08-21T01:26:02;22.80;1.00
38239;DHT22;24035;48.900;9.188;2023-08-21T01:28:29;22.80;1.00
38239;DHT22;24035;48.900;9.188;2023-08-21T01:31:26;22.80;1.00
38239;DHT22;24035;48.900;9.188;2023-08-21T01:33:56;22.70;76.50
38239;DHT22;24035;48.900;9.188;2023-08-21T01:36:23;22.60;99.90
38239;DHT22;24035;48.900;9.188;2023-08-21T01:38:50;22.60;99.90
38239;DHT22;24035;48.900;9.188;2023-08-21T01:41:16;22.60;99.90
38239;DHT22;24035;48.900;9.188;2023-08-21T01:43:42;22.50;99.90
38239;DHT22;24035;48.900;9.188;2023-08-21T01:46:08;22.50;99.90
38239;DHT22;24035;48.900;9.188;2023-08-21T01:48:34;22.50;1.00
38239;DHT22;24035;48.900;9.188;2023-08-21T01:51:03;22.50;1.00
38239;DHT22;24035;48.900;9.188;2023-08-21T01:53:28;22.40;1.00
38239;DHT22;24035;48.900;9.188;2023-08-21T01:55:54;22.30;1.00
38239;DHT22;24035;48.900;9.188;2023-08-21T01:58:20;22.30;1.00
38239;DHT22;24035;48.900;9.188;2023-08-21T02:00:47;22.30;1.00
38239;DHT22;24035;48.900;9.188;2023-08-21T02:03:13;22.20;1.00
38239;DHT22;24035;48.900;9.188;2023-08-21T02:05:39;22.20;1.00
38239;DHT22;24035;48.900;9.188;2023-08-21T02:08:06;22.10;1.00
38239;DHT22;24035;48.900;9.188;2023-08-21T02:10:32;22.10;99.90
38239;DHT22;24035;48.900;9.188;2023-08-21T02:12:58;22.00;99.90
38239;DHT22;24035;48.900;9.188;2023-08-21T02:15:24;22.00;99.90
38239;DHT22;24035;48.900;9.188;2023-08-21T02:17:49;21.90;1.00
38239;DHT22;24035;48.900;9.188;2023-08-21T02:20:15;21.90;1.00
38239;DHT22;24035;48.900;9.188;2023-08-21T02:22:41;21.90;1.00
38239;DHT22;24035;48.900;9.188;2023-08-21T02:25:07;21.90;1.00
38239;DHT22;24035;48.900;9.188;2023-08-21T02:27:32;21.80;99.90
38239;DHT22;24035;48.900;9.188;2023-08-21T02:29:58;21.80;99.90
38239;DHT22;24035;48.900;9.188;2023-08-21T02:32:24;21.80;99.90
38239;DHT22;24035;48.900;9.188;2023-08-21T02:34:50;21.80;99.90
38239;DHT22;24035;48.900;9.188;2023-08-21T02:37:16;21.70;99.90
38239;DHT22;24035;48.900;9.188;2023-08-21T02:39:41;21.70;99.90
38239;DHT22;24035;48.900;9.188;2023-08-21T02:42:07;21.80;99.90
38239;DHT22;24035;48.900;9.188;2023-08-21T02:44:33;21.80;99.90
38239;DHT22;24035;48.900;9.188;2023-08-21T02:46:58;21.70;99.90
38239;DHT22;24035;48.900;9.188;2023-08-21T02:49:24;21.70;1.00
38239;DHT22;24035;48.900;9.188;2023-08-21T02:51:50;21.70;1.00
38239;DHT22;24035;48.900;9.188;2023-08-21T02:54:16;21.70;1.00
38239;DHT22;24035;48.900;9.188;2023-08-21T02:56:41;21.70;1.00
38239;DHT22;24035;48.900;9.188;2023-08-21T02:59:07;21.70;1.00
38239;DHT22;24035;48.900;9.188;2023-08-21T03:01:32;21.70;1.00
38239;DHT22;24035;48.900;9.188;2023-08-21T03:04:01;21.60;1.00
38239;DHT22;24035;48.900;9.188;2023-08-21T03:06:27;21.60;1.00
38239;DHT22;24035;48.900;9.188;2023-08-21T03:08:53;21.50;1.00
38239;DHT22;24035;48.900;9.188;2023-08-21T03:11:18;21.50;86.00
38239;DHT22;24035;48.900;9.188;2023-08-21T03:13:44;21.50;56.50
38239;DHT22;24035;48.900;9.188;2023-08-21T03:16:10;21.40;99.90
38239;DHT22;24035;48.900;9.188;2023-08-21T03:18:55;21.40;99.90
38239;DHT22;24035;48.900;9.188;2023-08-21T03:21:22;21.40;99.90
38239;DHT22;24035;48.900;9.188;2023-08-21T03:23:51;21.30;99.90
38239;DHT22;24035;48.900;9.188;2023-08-21T03:26:17;21.40;99.90
38239;DHT22;24035;48.900;9.188;2023-08-21T03:28:42;21.30;99.90
38239;DHT22;24035;48.900;9.188;2023-08-21T03:31:08;21.30;99.90
38239;DHT22;24035;48.900;9.188;2023-08-21T03:33:34;21.40;99.90
38239;DHT22;24035;48.900;9.188;2023-08-21T03:36:00;21.30;1.00
38239;DHT22;24035;48.900;9.188;2023-08-21T03:38:25;21.20;1.00
38239;DHT22;24035;48.900;9.188;2023-08-21T03:40:51;21.30;1.00
38239;DHT22;24035;48.900;9.188;2023-08-21T03:43:17;21.30;99.90
38239;DHT22;24035;48.900;9.188;2023-08-21T03:45:42;21.20;99.90
38239;DHT22;24035;48.900;9.188;2023-08-21T03:48:08;21.20;99.90
38239;DHT22;24035;48.900;9.188;2023-08-21T03:50:33;21.20;99.90
38239;DHT22;24035;48.900;9.188;2023-08-21T03:52:59;21.10;1.00
38239;DHT22;24035;48.900;9.188;2023-08-21T03:55:25;21.20;1.00
38239;DHT22;24035;48.900;9.188;2023-08-21T03:57:51;21.20;1.00
38239;DHT22;24035;48.900;9.188;2023-08-21T04:00:17;21.20;1.00
38239;DHT22;24035;48.900;9.188;2023-08-21T04:02:42;21.10;1.00
38239;DHT22;24035;48.900;9.188;2023-08-21T04:05:08;21.10;1.00
38239;DHT22;24035;48.900;9.188;2023-08-21T04:07:36;21.10;1.00
38239;DHT22;24035;48.900;9.188;2023-08-21T04:10:01;21.10;1.00
38239;DHT22;24035;48.900;9.188;2023-08-21T04:12:27;21.10;1.00
38239;DHT22;24035;48.900;9.188;2023-08-21T04:14:53;21.10;1.00
38239;DHT22;24035;48.900;9.188;2023-08-21T04:17:23;21.10;1.00
38239;DHT22;24035;48.900;9.188;2023-08-21T04:19:51;21.10;1.00
38239;DHT22;24035;48.900;9.188;2023-08-21T04:22:17;21.00;99.90
38239;DHT22;24035;48.900;9.188;2023-08-21T04:24:43;21.00;99.90
38239;DHT22;24035;48.900;9.188;2023-08-21T04:27:08;21.00;99.90
38239;DHT22;24035;48.900;9.188;2023-08-21T04:29:38;20.90;99.90
38239;DHT22;24035;48.900;9.188;2023-08-21T04:32:05;20.90;99.90
38239;DHT22;24035;48.900;9.188;2023-08-21T04:34:32;20.90;99.90
38239;DHT22;24035;48.900;9.188;2023-08-21T04:36:58;20.90;99.90
38239;DHT22;24035;48.900;9.188;2023-08-21T04:39:23;20.90;99.90
38239;DHT22;24035;48.900;9.188;2023-08-21T04:41:49;20.90;99.90
38239;DHT22;24035;48.900;9.188;2023-08-21T04:44:15;21.00;99.90
38239;DHT22;24035;48.900;9.188;2023-08-21T04:46:41;21.10;1.00
38239;DHT22;24035;48.900;9.188;2023-08-21T04:49:06;21.10;1.00
38239;DHT22;24035;48.900;9.188;2023-08-21T04:51:32;21.10;1.00
38239;DHT22;24035;48.900;9.188;2023-08-21T04:53:58;21.20;99.90
38239;DHT22;24035;48.900;9.188;2023-08-21T04:56:27;21.20;99.90
38239;DHT22;24035;48.900;9.188;2023-08-21T04:58:53;21.20;99.90
38239;DHT22;24035;48.900;9.188;2023-08-21T05:01:19;21.30;78.70
38239;DHT22;24035;48.900;9.188;2023-08-21T05:03:44;21.30;1.00
38239;DHT22;24035;48.900;9.188;2023-08-21T05:06:10;21.40;1.00
38239;DHT22;24035;48.900;9.188;2023-08-21T05:08:36;21.40;1.00
38239;DHT22;24035;48.900;9.188;2023-08-21T05:11:02;21.50;1.00
38239;DHT22;24035;48.900;9.188;2023-08-21T05:13:27;21.60;99.90
38239;DHT22;24035;48.900;9.188;2023-08-21T05:15:55;21.60;99.90
38239;DHT22;24035;48.900;9.188;2023-08-21T05:18:21;21.80;14.70
38239;DHT22;24035;48.900;9.188;2023-08-21T05:20:48;21.90;1.00
38239;DHT22;24035;48.900;9.188;2023-08-21T05:23:14;22.00;1.00
38239;DHT22;24035;48.900;9.188;2023-08-21T05:25:40;22.20;99.90
38239;DHT22;24035;48.900;9.188;2023-08-21T05:28:06;22.30;1.00
38239;DHT22;24035;48.900;9.188;2023-08-21T05:30:32;22.40;1.00
38239;DHT22;24035;48.900;9.188;2023-08-21T05:32:58;22.50;99.90
38239;DHT22;24035;48.900;9.188;2023-08-21T05:35:24;22.60;99.90
38239;DHT22;24035;48.900;9.188;2023-08-21T05:37:49;22.70;1.00
38239;DHT22;24035;48.900;9.188;2023-08-21T05:40:15;22.80;1.00
38239;DHT22;24035;48.900;9.188;2023-08-21T05:42:41;22.90;1.00
38239;DHT22;24035;48.900;9.188;2023-08-21T05:45:07;22.90;1.00
38239;DHT22;24035;48.900;9.188;2023-08-21T05:47:33;23.00;1.00
38239;DHT22;24035;48.900;9.188;2023-08-21T05:49:58;23.00;99.90
38239;DHT22;24035;48.900;9.188;2023-08-21T05:52:24;23.10;99.90
38239;DHT22;24035;48.900;9.188;2023-08-21T05:54:50;23.20;1.00
38239;DHT22;24035;48.900;9.188;2023-08-21T05:57:16;23.30;1.00
38239;DHT22;24035;48.900;9.188;2023-08-21T05:59:46;23.40;1.00
38239;DHT22;24035;48.900;9.188;2023-08-21T06:02:13;23.50;1.00
38239;DHT22;24035;48.900;9.188;2023-08-21T06:04:42;23.50;1.00
38239;DHT22;24035;48.900;9.188;2023-08-21T06:07:09;23.60;1.00
38239;DHT22;24035;48.900;9.188;2023-08-21T06:09:35;23.70;99.90
38239;DHT22;24035;48.900;9.188;2023-08-21T06:12:02;24.00;99.90
38239;DHT22;24035;48.900;9.188;2023-08-21T06:14:28;24.10;99.90
38239;DHT22;24035;48.900;9.188;2023-08-21T06:16:59;24.20;99.90
38239;DHT22;24035;48.900;9.188;2023-08-21T06:19:26;24.40;1.00
38239;DHT22;24035;48.900;9.188;2023-08-21T06:21:52;24.60;1.00
38239;DHT22;24035;48.900;9.188;2023-08-21T06:24:17;24.80;1.00
38239;DHT22;24035;48.900;9.188;2023-08-21T06:26:43;25.00;1.00
38239;DHT22;24035;48.900;9.188;2023-08-21T06:29:09;25.10;1.00
38239;DHT22;24035;48.900;9.188;2023-08-21T06:31:35;25.00;1.00
38239;DHT22;24035;48.900;9.188;2023-08-21T06:34:00;25.20;1.00
38239;DHT22;24035;48.900;9.188;2023-08-21T06:36:26;25.80;99.90
38239;DHT22;24035;48.900;9.188;2023-08-21T06:38:51;25.90;99.90
38239;DHT22;24035;48.900;9.188;2023-08-21T06:41:17;26.20;95.30
38239;DHT22;24035;48.900;9.188;2023-08-21T06:43:43;26.90;1.00
38239;DHT22;24035;48.900;9.188;2023-08-21T06:46:09;27.20;1.00
38239;DHT22;24035;48.900;9.188;2023-08-21T06:48:38;28.10;1.00
38239;DHT22;24035;48.900;9.188;2023-08-21T06:51:05;28.50;1.00
38239;DHT22;24035;48.900;9.188;2023-08-21T06:53:31;28.40;1.00
38239;DHT22;24035;48.900;9.188;2023-08-21T06:55:57;28.80;1.00
38239;DHT22;24035;48.900;9.188;2023-08-21T06:58:22;29.70;99.90
38239;DHT22;24035;48.900;9.188;2023-08-21T07:00:48;30.30;99.90
38239;DHT22;24035;48.900;9.188;2023-08-21T07:03:14;30.70;99.90
38239;DHT22;24035;48.900;9.188;2023-08-21T07:05:40;30.90;99.90
38239;DHT22;24035;48.900;9.188;2023-08-21T07:08:06;31.70;99.90
38239;DHT22;24035;48.900;9.188;2023-08-21T07:10:38;32.50;99.90
38239;DHT22;24035;48.900;9.188;2023-08-21T07:13:04;33.20;99.90
38239;DHT22;24035;48.900;9.188;2023-08-21T07:15:30;33.10;99.90
38239;DHT22;24035;48.900;9.188;2023-08-21T07:17:55;33.60;99.90
38239;DHT22;24035;48.900;9.188;2023-08-21T07:20:24;34.10;99.90
38239;DHT22;24035;48.900;9.188;2023-08-21T07:22:50;33.10;99.90
38239;DHT22;24035;48.900;9.188;2023-08-21T07:25:16;33.10;99.90
38239;DHT22;24035;48.900;9.188;2023-08-21T07:27:42;33.30;99.90
38239;DHT22;24035;48.900;9.188;2023-08-21T07:30:08;33.80;99.90
38239;DHT22;24035;48.900;9.188;2023-08-21T07:32:34;34.50;99.90
38239;DHT22;24035;48.900;9.188;2023-08-21T07:34:59;35.30;99.90
38239;DHT22;24035;48.900;9.188;2023-08-21T07:37:25;34.90;99.90
38239;DHT22;24035;48.900;9.188;2023-08-21T07:39:50;34.60;99.90
38239;DHT22;24035;48.900;9.188;2023-08-21T07:42:16;34.10;99.90
38239;DHT22;24035;48.900;9.188;2023-08-21T07:44:43;33.80;99.90
38239;DHT22;24035;48.900;9.188;2023-08-21T07:47:11;33.20;99.90
38239;DHT22;24035;48.900;9.188;2023-08-21T07:49:36;32.70;99.90
38239;DHT22;24035;48.900;9.188;2023-08-21T07:52:03;32.30;99.90
38239;DHT22;24035;48.900;9.188;2023-08-21T07:54:29;32.50;99.90
38239;DHT22;24035;48.900;9.188;2023-08-21T07:56:55;33.10;99.90
38239;DHT22;24035;48.900;9.188;2023-08-21T07:59:21;32.70;99.90
38239;DHT22;24035;48.900;9.188;2023-08-21T08:01:47;32.80;99.90
38239;DHT22;24035;48.900;9.188;2023-08-21T08:04:13;33.10;99.90
38239;DHT22;24035;48.900;9.188;2023-08-21T08:06:39;32.30;99.90
38239;DHT22;24035;48.900;9.188;2023-08-21T08:09:04;32.10;99.90
38239;DHT22;24035;48.900;9.188;2023-08-21T08:11:30;32.00;99.90
38239;DHT22;24035;48.900;9.188;2023-08-21T08:13:56;32.00;99.90
38239;DHT22;24035;48.900;9.188;2023-08-21T08:16:22;31.40;99.90
38239;DHT22;24035;48.900;9.188;2023-08-21T08:18:47;30.90;99.90
38239;DHT22;24035;48.900;9.188;2023-08-21T08:21:14;31.00;99.90
38239;DHT22;24035;48.900;9.188;2023-08-21T08:23:40;31.20;99.90
38239;DHT22;24035;48.900;9.188;2023-08-21T08:26:05;31.10;99.90
38239;DHT22;24035;48.900;9.188;2023-08-21T08:28:31;30.50;99.90
38239;DHT22;24035;48.900;9.188;2023-08-21T08:30:57;30.60;99.90
38239;DHT22;24035;48.900;9.188;2023-08-21T08:33:23;30.90;99.90
38239;DHT22;24035;48.900;9.188;2023-08-21T08:35:49;31.30;99.90
38239;DHT22;24035;48.900;9.188;2023-08-21T08:38:14;31.30;99.90
38239;DHT22;24035;48.900;9.188;2023-08-21T08:40:45;31.30;99.90
38239;DHT22;24035;48.900;9.188;2023-08-21T08:43:14;30.70;99.90
38239;DHT22;24035;48.900;9.188;2023-08-21T08:45:41;30.50;99.90
38239;DHT22;24035;48.900;9.188;2023-08-21T08:48:07;29.90;99.90
38239;DHT22;24035;48.900;9.188;2023-08-21T08:50:34;29.60;99.90
38239;DHT22;24035;48.900;9.188;2023-08-21T08:53:00;29.30;99.90
38239;DHT22;24035;48.900;9.188;2023-08-21T08:55:26;29.50;99.90
38239;DHT22;24035;48.900;9.188;2023-08-21T08:57:53;29.60;99.90
38239;DHT22;24035;48.900;9.188;2023-08-21T09:00:20;29.60;99.90
38239;DHT22;24035;48.900;9.188;2023-08-21T09:02:46;29.60;99.90
38239;DHT22;24035;48.900;9.188;2023-08-21T09:05:12;29.30;99.90
38239;DHT22;24035;48.900;9.188;2023-08-21T09:07:39;29.10;99.90
38239;DHT22;24035;48.900;9.188;2023-08-21T09:10:12;29.00;99.90
38239;DHT22;24035;48.900;9.188;2023-08-21T09:12:38;29.00;99.90
38239;DHT22;24035;48.900;9.188;2023-08-21T09:15:08;29.10;99.90
38239;DHT22;24035;48.900;9.188;2023-08-21T09:17:34;29.20;99.90
38239;DHT22;24035;48.900;9.188;2023-08-21T09:20:07;29.30;99.90
38239;DHT22;24035;48.900;9.188;2023-08-21T09:22:33;29.50;99.90
38239;DHT22;24035;48.900;9.188;2023-08-21T09:25:07;29.70;99.90
38239;DHT22;24035;48.900;9.188;2023-08-21T09:27:34;29.90;99.90
38239;DHT22;24035;48.900;9.188;2023-08-21T09:30:09;30.00;99.90
38239;DHT22;24035;48.900;9.188;2023-08-21T09:35:23;30.50;99.90
38239;DHT22;24035;48.900;9.188;2023-08-21T09:37:50;30.10;99.90
38239;DHT22;24035;48.900;9.188;2023-08-21T09:40:20;30.10;99.90
38239;DHT22;24035;48.900;9.188;2023-08-21T09:42:45;30.10;99.90
38239;DHT22;24035;48.900;9.188;2023-08-21T09:45:20;29.90;99.90
38239;DHT22;24035;48.900;9.188;2023-08-21T09:47:46;30.00;99.90
38239;DHT22;24035;48.900;9.188;2023-08-21T09:50:12;30.00;99.90
38239;DHT22;24035;48.900;9.188;2023-08-21T09:52:37;30.10;99.90
38239;DHT22;24035;48.900;9.188;2023-08-21T09:55:04;30.20;99.90
38239;DHT22;24035;48.900;9.188;2023-08-21T09:57:31;30.30;99.90
38239;DHT22;24035;48.900;9.188;2023-08-21T09:59:59;30.40;99.90
38239;DHT22;24035;48.900;9.188;2023-08-21T10:02:28;30.50;99.90
38239;DHT22;24035;48.900;9.188;2023-08-21T10:04:54;30.50;99.90
38239;DHT22;24035;48.900;9.188;2023-08-21T10:07:21;30.50;99.90
38239;DHT22;24035;48.900;9.188;2023-08-21T10:09:50;30.50;99.90
38239;DHT22;24035;48.900;9.188;2023-08-21T10:12:17;30.70;99.90
38239;DHT22;24035;48.900;9.188;2023-08-21T10:14:43;30.70;99.90
38239;DHT22;24035;48.900;9.188;2023-08-21T10:17:09;30.20;99.90
38239;DHT22;24035;48.900;9.188;2023-08-21T10:19:35;30.20;99.90
38239;DHT22;24035;48.900;9.188;2023-08-21T10:22:01;30.30;99.90
38239;DHT22;24035;48.900;9.188;2023-08-21T10:24:36;30.30;99.90
38239;DHT22;24035;48.900;9.188;2023-08-21T10:27:03;30.30;99.90
38239;DHT22;24035;48.900;9.188;2023-08-21T10:29:31;30.30;99.90
38239;DHT22;24035;48.900;9.188;2023-08-21T10:32:04;30.20;99.90
38239;DHT22;24035;48.900;9.188;2023-08-21T10:34:35;30.20;99.90
38239;DHT22;24035;48.900;9.188;2023-08-21T10:37:08;30.30;99.90
38239;DHT22;24035;48.900;9.188;2023-08-21T10:39:36;30.40;99.90
38239;DHT22;24035;48.900;9.188;2023-08-21T10:42:07;30.30;99.90
38239;DHT22;24035;48.900;9.188;2023-08-21T10:44:34;30.40;99.90
38239;DHT22;24035;48.900;9.188;2023-08-21T10:49:58;30.70;99.90
38239;DHT22;24035;48.900;9.188;2023-08-21T10:52:29;30.80;99.90
38239;DHT22;24035;48.900;9.188;2023-08-21T10:54:59;30.90;99.90
38239;DHT22;24035;48.900;9.188;2023-08-21T10:57:28;31.00;99.90
38239;DHT22;24035;48.900;9.188;2023-08-21T10:59:59;31.10;99.90
38239;DHT22;24035;48.900;9.188;2023-08-21T11:02:27;31.00;99.90
38239;DHT22;24035;48.900;9.188;2023-08-21T11:04:55;31.10;99.90
38239;DHT22;24035;48.900;9.188;2023-08-21T11:07:21;31.10;99.90
38239;DHT22;24035;48.900;9.188;2023-08-21T11:09:48;31.10;99.90
38239;DHT22;24035;48.900;9.188;2023-08-21T11:12:20;31.20;99.90
38239;DHT22;24035;48.900;9.188;2023-08-21T11:14:47;31.30;99.90
38239;DHT22;24035;48.900;9.188;2023-08-21T11:17:14;31.40;99.90
38239;DHT22;24035;48.900;9.188;2023-08-21T11:19:41;31.40;99.90
38239;DHT22;24035;48.900;9.188;2023-08-21T11:22:09;31.40;99.90
38239;DHT22;24035;48.900;9.188;2023-08-21T11:27:11;31.10;99.90
38239;DHT22;24035;48.900;9.188;2023-08-21T11:29:39;31.00;99.90
38239;DHT22;24035;48.900;9.188;2023-08-21T11:32:20;30.80;99.90
38239;DHT22;24035;48.900;9.188;2023-08-21T11:34:52;30.80;99.90
38239;DHT22;24035;48.900;9.188;2023-08-21T11:37:28;30.90;99.90
38239;DHT22;24035;48.900;9.188;2023-08-21T11:39:56;30.90;99.90
38239;DHT22;24035;48.900;9.188;2023-08-21T11:42:29;31.00;99.90
38239;DHT22;24035;48.900;9.188;2023-08-21T11:44:56;31.30;99.90
38239;DHT22;24035;48.900;9.188;2023-08-21T11:47:23;31.50;99.90
38239;DHT22;24035;48.900;9.188;2023-08-21T11:49:49;31.60;99.90
38239;DHT22;24035;48.900;9.188;2023-08-21T11:52:23;31.90;99.90
38239;DHT22;24035;48.900;9.188;2023-08-21T11:54:53;32.10;99.90
38239;DHT22;24035;48.900;9.188;2023-08-21T11:57:20;31.90;99.90
38239;DHT22;24035;48.900;9.188;2023-08-21T11:59:55;31.60;99.90
38239;DHT22;24035;48.900;9.188;2023-08-21T12:02:24;31.60;99.90
38239;DHT22;24035;48.900;9.188;2023-08-21T12:05:04;31.70;99.90
38239;DHT22;24035;48.900;9.188;2023-08-21T12:07:33;31.70;99.90
38239;DHT22;24035;48.900;9.188;2023-08-21T12:10:00;31.70;99.90
38239;DHT22;24035;48.900;9.188;2023-08-21T12:12:25;31.70;99.90
38239;DHT22;24035;48.900;9.188;2023-08-21T12:14:51;31.80;99.90
38239;DHT22;24035;48.900;9.188;2023-08-21T12:17:17;31.80;99.90
38239;DHT22;24035;48.900;9.188;2023-08-21T12:19:42;31.80;99.90
38239;DHT22;24035;48.900;9.188;2023-08-21T12:22:09;31.80;99.90
38239;DHT22;24035;48.900;9.188;2023-08-21T12:24:35;32.10;99.90
38239;DHT22;24035;48.900;9.188;2023-08-21T12:27:03;32.20;99.90
38239;DHT22;24035;48.900;9.188;2023-08-21T12:29:29;31.90;99.90
38239;DHT22;24035;48.900;9.188;2023-08-21T12:31:58;31.90;99.90
38239;DHT22;24035;48.900;9.188;2023-08-21T12:34:23;32.00;99.90
38239;DHT22;24035;48.900;9.188;2023-08-21T12:36:50;32.20;99.90
38239;DHT22;24035;48.900;9.188;2023-08-21T12:39:17;32.30;99.90
38239;DHT22;24035;48.900;9.188;2023-08-21T12:41:43;32.40;99.90
38239;DHT22;24035;48.900;9.188;2023-08-21T12:44:09;32.50;99.90
38239;DHT22;24035;48.900;9.188;2023-08-21T12:46:35;32.70;99.90
38239;DHT22;24035;48.900;9.188;2023-08-21T12:49:02;32.70;99.90
38239;DHT22;24035;48.900;9.188;2023-08-21T12:51:28;32.80;99.90
38239;DHT22;24035;48.900;9.188;2023-08-21T12:53:55;32.70;99.90
38239;DHT22;24035;48.900;9.188;2023-08-21T12:56:21;32.50;99.90
38239;DHT22;24035;48.900;9.188;2023-08-21T12:58:47;32.70;99.90
38239;DHT22;24035;48.900;9.188;2023-08-21T13:01:13;32.80;99.90
38239;DHT22;24035;48.900;9.188;2023-08-21T13:03:46;32.80;99.90
38239;DHT22;24035;48.900;9.188;2023-08-21T13:06:12;32.90;99.90
38239;DHT22;24035;48.900;9.188;2023-08-21T13:08:38;32.80;99.90
38239;DHT22;24035;48.900;9.188;2023-08-21T13:11:04;32.70;99.90
38239;DHT22;24035;48.900;9.188;2023-08-21T13:13:31;32.80;99.90
38239;DHT22;24035;48.900;9.188;2023-08-21T13:15:57;32.80;99.90
38239;DHT22;24035;48.900;9.188;2023-08-21T13:18:24;33.00;99.90
38239;DHT22;24035;48.900;9.188;2023-08-21T13:20:49;33.00;99.90
38239;DHT22;24035;48.900;9.188;2023-08-21T13:23:16;32.70;99.90
38239;DHT22;24035;48.900;9.188;2023-08-21T13:25:41;32.90;99.90
38239;DHT22;24035;48.900;9.188;2023-08-21T13:28:07;32.90;99.90
38239;DHT22;24035;48.900;9.188;2023-08-21T13:30:33;32.80;99.90
38239;DHT22;24035;48.900;9.188;2023-08-21T13:32:59;32.70;99.90
38239;DHT22;24035;48.900;9.188;2023-08-21T13:35:24;32.90;99.90
38239;DHT22;24035;48.900;9.188;2023-08-21T13:37:50;32.90;99.90
38239;DHT22;24035;48.900;9.188;2023-08-21T13:40:16;32.90;99.90
38239;DHT22;24035;48.900;9.188;2023-08-21T13:42:44;32.90;99.90
38239;DHT22;24035;48.900;9.188;2023-08-21T13:45:12;33.00;99.90
38239;DHT22;24035;48.900;9.188;2023-08-21T13:47:45;33.00;99.90
38239;DHT22;24035;48.900;9.188;2023-08-21T13:50:13;33.00;99.90
38239;DHT22;24035;48.900;9.188;2023-08-21T13:52:40;32.90;99.90
38239;DHT22;24035;48.900;9.188;2023-08-21T13:55:07;32.60;99.90
38239;DHT22;24035;48.900;9.188;2023-08-21T13:57:34;32.40;99.90
38239;DHT22;24035;48.900;9.188;2023-08-21T14:00:00;32.60;99.90
38239;DHT22;24035;48.900;9.188;2023-08-21T14:02:26;32.80;99.90
38239;DHT22;24035;48.900;9.188;2023-08-21T14:04:52;32.70;99.90
38239;DHT22;24035;48.900;9.188;2023-08-21T14:07:18;32.50;99.90
38239;DHT22;24035;48.900;9.188;2023-08-21T14:09:43;32.50;99.90
38239;DHT22;24035;48.900;9.188;2023-08-21T14:12:09;32.50;99.90
38239;DHT22;24035;48.900;9.188;2023-08-21T14:14:35;32.60;99.90
38239;DHT22;24035;48.900;9.188;2023-08-21T14:17:02;32.50;99.90
38239;DHT22;24035;48.900;9.188;2023-08-21T14:19:29;32.40;99.90
38239;DHT22;24035;48.900;9.188;2023-08-21T14:21:55;32.40;99.90
38239;DHT22;24035;48.900;9.188;2023-08-21T14:24:21;32.50;99.90
38239;DHT22;24035;48.900;9.188;2023-08-21T14:26:46;33.00;99.90
38239;DHT22;24035;48.900;9.188;2023-08-21T14:29:12;33.30;99.90
38239;DHT22;24035;48.900;9.188;2023-08-21T14:31:37;33.70;99.90
38239;DHT22;24035;48.900;9.188;2023-08-21T14:34:03;33.90;99.90
38239;DHT22;24035;48.900;9.188;2023-08-21T14:36:29;34.00;99.90
38239;DHT22;24035;48.900;9.188;2023-08-21T14:38:55;34.10;99.90
38239;DHT22;24035;48.900;9.188;2023-08-21T14:41:20;34.10;99.90
38239;DHT22;24035;48.900;9.188;2023-08-21T14:43:47;33.90;99.90
38239;DHT22;24035;48.900;9.188;2023-08-21T14:46:13;33.80;99.90
38239;DHT22;24035;48.900;9.188;2023-08-21T14:48:39;33.80;99.90
38239;DHT22;24035;48.900;9.188;2023-08-21T14:51:05;33.90;99.90
38239;DHT22;24035;48.900;9.188;2023-08-21T14:53:30;34.00;99.90
38239;DHT22;24035;48.900;9.188;2023-08-21T14:55:56;34.20;99.90
38239;DHT22;24035;48.900;9.188;2023-08-21T14:58:23;34.30;99.90
38239;DHT22;24035;48.900;9.188;2023-08-21T15:00:49;33.90;99.90
38239;DHT22;24035;48.900;9.188;2023-08-21T15:03:15;33.70;99.90
38239;DHT22;24035;48.900;9.188;2023-08-21T15:05:41;33.00;99.90
38239;DHT22;24035;48.900;9.188;2023-08-21T15:08:06;32.70;99.90
38239;DHT22;24035;48.900;9.188;2023-08-21T15:10:32;32.50;99.90
38239;DHT22;24035;48.900;9.188;2023-08-21T15:12:58;32.50;99.90
38239;DHT22;24035;48.900;9.188;2023-08-21T15:15:23;32.60;99.90
38239;DHT22;24035;48.900;9.188;2023-08-21T15:17:49;32.90;99.90
38239;DHT22;24035;48.900;9.188;2023-08-21T15:20:15;33.00;99.90
38239;DHT22;24035;48.900;9.188;2023-08-21T15:22:41;33.10;99.90
38239;DHT22;24035;48.900;9.188;2023-08-21T15:25:09;33.20;99.90
38239;DHT22;24035;48.900;9.188;2023-08-21T15:27:35;33.10;99.90
38239;DHT22;24035;48.900;9.188;2023-08-21T15:30:01;33.20;99.90
38239;DHT22;24035;48.900;9.188;2023-08-21T15:32:28;32.90;99.90
38239;DHT22;24035;48.900;9.188;2023-08-21T15:34:54;32.60;99.90
38239;DHT22;24035;48.900;9.188;2023-08-21T15:37:20;32.60;99.90
38239;DHT22;24035;48.900;9.188;2023-08-21T15:39:45;32.80;99.90
38239;DHT22;24035;48.900;9.188;2023-08-21T15:42:11;32.80;99.90